Time;durP1;ratioP1;P1;durP2;ratioP2;P2;SDS_P1;SDS_P2;PMS_P1;PMS_P2;Temp;Humidity;BMP_temperature;BMP_pressure;BME280_temperature;BME280_humidity;BME280_pressure;Samples;Min_cycle;Max_cycle;Signal;HPM_P1;HPM_P2
2021/09/25 00:01:34;;;;;;;;;;;19.80;45.90;;;;;;5071688;28;19912;-69
2021/09/25 00:04:02;;;;;;;;;;;19.80;47.10;;;;;;5072233;28;19909;-69
2021/09/25 00:06:29;;;;;;;;;;;19.90;45.70;;;;;;5072278;28;19916;-68
2021/09/25 00:08:57;;;;;;;;;;;19.90;47.40;;;;;;5106334;28;19925;-69
2021/09/25 00:11:26;;;;;;;;;;;20.10;47.80;;;;;;5076885;28;19912;-69
2021/09/25 00:13:53;;;;;;;;;;;20.20;51.80;;;;;;5104539;28;19908;-68
2021/09/25 00:16:20;;;;;;;;;;;20.00;52.80;;;;;;5072192;28;19915;-68
2021/09/25 00:18:47;;;;;;;;;;;20.00;53.90;;;;;;5071448;28;19912;-69
2021/09/25 00:21:13;;;;;;;;;;;20.00;54.40;;;;;;5072231;28;19908;-68
2021/09/25 00:23:40;;;;;;;;;;;20.20;52.40;;;;;;5072255;28;20446;-69
2021/09/25 00:26:07;;;;;;;;;;;20.30;52.70;;;;;;5072130;28;19919;-68
2021/09/25 00:28:33;;;;;;;;;;;20.20;54.00;;;;;;5072237;28;19919;-69
2021/09/25 00:31:00;;;;;;;;;;;20.30;52.20;;;;;;5071887;28;19909;-68
2021/09/25 00:33:27;;;;;;;;;;;20.20;54.00;;;;;;5071686;28;19919;-70
2021/09/25 00:35:53;;;;;;;;;;;20.30;54.90;;;;;;5071799;28;19991;-69
2021/09/25 00:38:20;;;;;;;;;;;20.20;56.70;;;;;;5072067;28;20417;-69
2021/09/25 00:40:47;;;;;;;;;;;20.30;59.70;;;;;;5071921;28;19908;-69
2021/09/25 00:43:13;;;;;;;;;;;20.20;61.00;;;;;;5072051;28;20019;-69
2021/09/25 00:45:40;;;;;;;;;;;20.00;63.50;;;;;;5071741;28;19916;-69
2021/09/25 00:48:07;;;;;;;;;;;19.90;65.30;;;;;;5071331;28;20011;-69
2021/09/25 00:50:33;;;;;;;;;;;20.10;63.80;;;;;;5071703;28;19920;-69
2021/09/25 00:53:00;;;;;;;;;;;20.20;65.60;;;;;;5070695;28;20259;-69
2021/09/25 00:55:27;;;;;;;;;;;20.20;65.90;;;;;;5071751;28;19977;-69
2021/09/25 00:57:58;;;;;;;;;;;20.30;69.00;;;;;;5071539;28;20004;-69
2021/09/25 01:00:26;;;;;;;;;;;20.50;67.60;;;;;;5072111;28;19916;-69
2021/09/25 01:02:52;;;;;;;;;;;20.50;69.60;;;;;;5071197;28;19908;-69
2021/09/25 01:05:20;;;;;;;;;;;20.70;68.40;;;;;;5071451;28;19916;-69
2021/09/25 01:07:50;;;;;;;;;;;20.90;71.50;;;;;;5071310;28;19922;-69
2021/09/25 01:10:17;;;;;;;;;;;21.00;72.30;;;;;;5071806;28;20382;-68
2021/09/25 01:12:44;;;;;;;;;;;21.00;77.20;;;;;;5073028;28;19915;-69
2021/09/25 01:15:11;;;;;;;;;;;21.00;77.10;;;;;;5075241;28;19944;-69
2021/09/25 01:17:38;;;;;;;;;;;20.80;78.20;;;;;;5074718;28;20278;-69
2021/09/25 01:20:06;;;;;;;;;;;20.70;79.00;;;;;;5074589;28;19908;-69
2021/09/25 01:22:33;;;;;;;;;;;20.80;80.60;;;;;;5075317;28;19961;-69
2021/09/25 01:25:00;;;;;;;;;;;20.90;73.00;;;;;;5075069;28;19909;-69
2021/09/25 01:27:26;;;;;;;;;;;20.50;74.00;;;;;;5074968;28;19919;-69
2021/09/25 01:29:53;;;;;;;;;;;20.50;79.00;;;;;;5074580;28;20290;-69
2021/09/25 01:32:20;;;;;;;;;;;20.40;81.30;;;;;;5074751;28;19915;-68
2021/09/25 01:34:46;;;;;;;;;;;20.20;81.50;;;;;;5074432;28;19954;-70
2021/09/25 01:37:13;;;;;;;;;;;20.00;82.50;;;;;;5074819;28;19963;-69
2021/09/25 01:39:39;;;;;;;;;;;20.00;81.50;;;;;;5074655;28;19915;-69
2021/09/25 01:42:06;;;;;;;;;;;20.00;83.20;;;;;;5074826;28;20292;-68
2021/09/25 01:44:33;;;;;;;;;;;20.00;83.90;;;;;;5074513;28;19916;-69
2021/09/25 01:47:00;;;;;;;;;;;20.00;85.70;;;;;;5076699;28;19909;-69
2021/09/25 01:49:27;;;;;;;;;;;19.90;86.00;;;;;;5077167;28;19969;-69
2021/09/25 01:51:53;;;;;;;;;;;20.00;85.60;;;;;;5074773;28;19916;-69
2021/09/25 01:54:20;;;;;;;;;;;20.20;85.30;;;;;;5074452;28;20365;-69
2021/09/25 01:56:47;;;;;;;;;;;20.20;85.60;;;;;;5074441;28;19919;-69
2021/09/25 01:59:14;;;;;;;;;;;20.30;85.80;;;;;;5074395;28;20038;-69
2021/09/25 02:01:40;;;;;;;;;;;20.20;85.90;;;;;;5073105;28;20283;-69
2021/09/25 02:04:07;;;;;;;;;;;20.00;85.60;;;;;;5073524;28;19920;-69
2021/09/25 02:06:34;;;;;;;;;;;19.80;84.50;;;;;;5074217;28;19912;-70
2021/09/25 02:09:00;;;;;;;;;;;19.90;87.40;;;;;;5073921;28;20371;-69
2021/09/25 02:11:27;;;;;;;;;;;20.00;87.20;;;;;;5074054;28;20367;-68
2021/09/25 02:13:54;;;;;;;;;;;20.00;85.70;;;;;;5074002;28;19954;-69
2021/09/25 02:16:20;;;;;;;;;;;19.80;87.20;;;;;;5074045;28;19915;-69
2021/09/25 02:18:47;;;;;;;;;;;19.60;87.10;;;;;;5073422;28;20282;-69
2021/09/25 02:21:14;;;;;;;;;;;19.30;89.10;;;;;;5073919;28;19943;-69
2021/09/25 02:23:40;;;;;;;;;;;19.20;90.70;;;;;;5073208;28;19916;-69
2021/09/25 02:26:07;;;;;;;;;;;19.30;90.10;;;;;;5073489;28;19912;-69
2021/09/25 02:28:34;;;;;;;;;;;19.50;89.80;;;;;;5073718;28;19916;-69
2021/09/25 02:31:01;;;;;;;;;;;19.60;90.40;;;;;;5073840;28;19944;-70
2021/09/25 02:33:28;;;;;;;;;;;19.60;90.50;;;;;;5073773;28;20363;-69
2021/09/25 02:35:57;;;;;;;;;;;19.60;90.40;;;;;;5073607;28;19953;-69
2021/09/25 02:38:23;;;;;;;;;;;19.50;91.50;;;;;;5073590;28;19908;-69
2021/09/25 02:40:50;;;;;;;;;;;19.50;92.00;;;;;;5073830;28;19920;-69
2021/09/25 02:43:17;;;;;;;;;;;19.20;92.30;;;;;;5073663;28;19909;-69
2021/09/25 02:45:43;;;;;;;;;;;18.90;93.20;;;;;;5073275;28;19908;-69
2021/09/25 02:48:10;;;;;;;;;;;18.80;92.00;;;;;;5073311;28;19913;-68
2021/09/25 02:50:37;;;;;;;;;;;18.60;92.90;;;;;;5073183;28;19928;-69
2021/09/25 02:53:04;;;;;;;;;;;18.70;93.20;;;;;;5073366;28;20271;-68
2021/09/25 02:55:30;;;;;;;;;;;18.80;93.40;;;;;;5072909;28;19913;-68
2021/09/25 02:57:57;;;;;;;;;;;18.80;93.10;;;;;;5072804;28;20283;-68
2021/09/25 03:00:24;;;;;;;;;;;18.80;93.00;;;;;;5073354;28;19965;-69
2021/09/25 03:02:51;;;;;;;;;;;18.80;92.70;;;;;;5073178;28;19920;-69
2021/09/25 03:05:17;;;;;;;;;;;18.70;92.60;;;;;;5072901;28;19965;-69
2021/09/25 03:07:44;;;;;;;;;;;18.60;92.60;;;;;;5072631;28;19908;-69
2021/09/25 03:10:11;;;;;;;;;;;18.70;92.30;;;;;;5073017;28;20004;-69
2021/09/25 03:12:38;;;;;;;;;;;18.70;92.80;;;;;;5072817;28;19965;-68
2021/09/25 03:15:05;;;;;;;;;;;18.40;92.40;;;;;;5072909;28;19916;-68
2021/09/25 03:17:32;;;;;;;;;;;18.50;93.00;;;;;;5072517;28;19924;-68
2021/09/25 03:19:59;;;;;;;;;;;18.60;93.30;;;;;;5072819;28;19947;-68
2021/09/25 03:22:25;;;;;;;;;;;18.70;93.80;;;;;;5072816;28;19916;-70
2021/09/25 03:24:52;;;;;;;;;;;18.90;93.30;;;;;;5074904;28;20072;-69
2021/09/25 03:27:20;;;;;;;;;;;18.80;93.10;;;;;;5073322;28;20435;-69
2021/09/25 03:29:47;;;;;;;;;;;18.50;93.20;;;;;;5072262;28;20337;-69
2021/09/25 03:32:13;;;;;;;;;;;18.40;94.10;;;;;;5069668;28;20248;-69
2021/09/25 03:34:40;;;;;;;;;;;18.30;94.60;;;;;;5069766;28;20457;-69
2021/09/25 03:37:07;;;;;;;;;;;18.30;94.40;;;;;;5070195;28;20392;-69
2021/09/25 03:39:33;;;;;;;;;;;18.30;94.90;;;;;;5070359;28;19958;-68
2021/09/25 03:42:00;;;;;;;;;;;18.30;94.50;;;;;;5070728;28;19920;-69
2021/09/25 03:44:26;;;;;;;;;;;18.30;95.20;;;;;;5070480;28;19912;-70
2021/09/25 03:46:55;;;;;;;;;;;18.30;94.90;;;;;;5070460;28;19920;-69
2021/09/25 03:49:22;;;;;;;;;;;18.30;94.80;;;;;;5069800;28;20058;-68
2021/09/25 03:51:48;;;;;;;;;;;18.00;95.10;;;;;;5070205;28;19928;-69
2021/09/25 03:54:15;;;;;;;;;;;17.90;95.50;;;;;;5070547;28;20444;-69
2021/09/25 03:56:42;;;;;;;;;;;17.90;95.60;;;;;;5070428;28;19912;-69
2021/09/25 03:59:08;;;;;;;;;;;18.10;95.10;;;;;;5070391;28;20367;-69
2021/09/25 04:01:35;;;;;;;;;;;18.00;94.50;;;;;;5069724;28;19999;-68
2021/09/25 04:04:01;;;;;;;;;;;17.90;95.00;;;;;;5069992;28;19976;-70
2021/09/25 04:06:28;;;;;;;;;;;17.80;94.70;;;;;;5070118;28;20371;-69
2021/09/25 04:08:55;;;;;;;;;;;17.80;94.70;;;;;;5068719;28;19916;-69
2021/09/25 04:11:22;;;;;;;;;;;17.80;94.10;;;;;;5070364;28;19978;-68
2021/09/25 04:13:49;;;;;;;;;;;17.80;94.40;;;;;;5101963;28;20264;-69
2021/09/25 04:16:15;;;;;;;;;;;17.80;94.70;;;;;;5070294;28;19946;-70
2021/09/25 04:18:42;;;;;;;;;;;17.90;94.20;;;;;;5070011;28;19963;-69
2021/09/25 04:21:10;;;;;;;;;;;17.70;94.80;;;;;;5070857;28;19948;-69
2021/09/25 04:23:37;;;;;;;;;;;17.60;95.20;;;;;;5074013;28;20001;-69
2021/09/25 04:26:06;;;;;;;;;;;17.60;95.10;;;;;;5074574;28;19917;-70
2021/09/25 04:28:33;;;;;;;;;;;17.60;94.80;;;;;;5074944;28;19924;-70
2021/09/25 04:31:00;;;;;;;;;;;17.50;94.30;;;;;;5075249;28;19913;-68
2021/09/25 04:33:26;;;;;;;;;;;17.40;94.20;;;;;;5075820;28;19936;-70
2021/09/25 04:35:53;;;;;;;;;;;17.40;94.60;;;;;;5077483;28;19915;-69
2021/09/25 04:38:22;;;;;;;;;;;17.50;95.10;;;;;;5077868;28;19908;-71
2021/09/25 04:40:50;;;;;;;;;;;17.60;96.10;;;;;;5076665;28;20436;-70
2021/09/25 04:43:17;;;;;;;;;;;17.60;96.70;;;;;;5077244;28;19912;-69
2021/09/25 04:45:43;;;;;;;;;;;17.40;97.00;;;;;;5077534;28;19909;-69
2021/09/25 04:48:10;;;;;;;;;;;17.10;97.70;;;;;;5080807;28;20006;-70
2021/09/25 04:50:36;;;;;;;;;;;17.00;98.30;;;;;;5076610;28;19931;-69
2021/09/25 04:53:10;;;;;;;;;;;17.00;98.60;;;;;;5076235;28;19970;-69
2021/09/25 04:55:37;;;;;;;;;;;17.20;98.10;;;;;;5076607;28;19939;-70
2021/09/25 04:58:04;;;;;;;;;;;17.10;98.00;;;;;;5077401;28;19912;-70
2021/09/25 05:00:31;;;;;;;;;;;17.00;98.20;;;;;;5075775;28;19999;-68
2021/09/25 05:02:58;;;;;;;;;;;16.90;98.20;;;;;;5074007;28;19920;-70
2021/09/25 05:05:25;;;;;;;;;;;17.00;98.00;;;;;;5076381;28;20031;-70
2021/09/25 05:07:51;;;;;;;;;;;16.70;98.00;;;;;;5075745;28;19909;-70
2021/09/25 05:10:18;;;;;;;;;;;16.70;98.00;;;;;;5077354;28;19920;-69
2021/09/25 05:12:45;;;;;;;;;;;16.80;98.40;;;;;;5075736;28;20028;-68
2021/09/25 05:15:16;;;;;;;;;;;16.90;97.90;;;;;;5073476;28;19954;-68
2021/09/25 05:17:43;;;;;;;;;;;17.10;97.30;;;;;;5073049;28;20400;-69
2021/09/25 05:20:10;;;;;;;;;;;17.00;97.20;;;;;;5073105;28;20007;-68
2021/09/25 05:22:37;;;;;;;;;;;16.80;97.70;;;;;;5073095;28;19915;-70
2021/09/25 05:25:05;;;;;;;;;;;16.70;98.10;;;;;;5073047;28;20378;-68
2021/09/25 05:27:32;;;;;;;;;;;16.70;98.30;;;;;;5073179;28;19910;-69
2021/09/25 05:29:59;;;;;;;;;;;16.60;98.40;;;;;;5072928;28;19921;-69
2021/09/25 05:32:25;;;;;;;;;;;16.40;98.70;;;;;;5072634;28;19913;-68
2021/09/25 05:34:52;;;;;;;;;;;16.20;98.90;;;;;;5073068;28;19912;-68
2021/09/25 05:37:20;;;;;;;;;;;16.10;99.20;;;;;;5073320;28;19913;-67
2021/09/25 05:39:47;;;;;;;;;;;16.10;99.20;;;;;;5072925;28;19920;-68
2021/09/25 05:42:14;;;;;;;;;;;16.10;99.10;;;;;;5073151;28;19994;-68
2021/09/25 05:44:44;;;;;;;;;;;16.10;98.80;;;;;;5073190;28;19995;-70
2021/09/25 05:47:12;;;;;;;;;;;16.10;98.40;;;;;;5072673;28;19912;-69
2021/09/25 05:49:39;;;;;;;;;;;16.10;98.40;;;;;;5072562;28;19928;-68
2021/09/25 05:52:08;;;;;;;;;;;16.10;98.80;;;;;;5074065;28;19920;-69
2021/09/25 05:54:36;;;;;;;;;;;16.20;98.80;;;;;;5073491;28;19958;-69
2021/09/25 05:57:05;;;;;;;;;;;16.20;98.40;;;;;;5073278;28;19927;-70
2021/09/25 05:59:32;;;;;;;;;;;16.20;98.40;;;;;;5103724;28;19927;-70
2021/09/25 06:01:59;;;;;;;;;;;16.30;98.10;;;;;;5072946;28;19917;-70
2021/09/25 06:04:25;;;;;;;;;;;16.20;98.20;;;;;;5072637;28;20002;-69
2021/09/25 06:06:53;;;;;;;;;;;16.20;98.00;;;;;;5072723;28;20471;-69
2021/09/25 06:09:20;;;;;;;;;;;16.10;97.60;;;;;;5072265;28;20019;-70
2021/09/25 06:11:51;;;;;;;;;;;16.00;97.60;;;;;;5071869;28;19912;-68
2021/09/25 06:14:18;;;;;;;;;;;16.10;97.80;;;;;;5072426;28;20018;-69
2021/09/25 06:16:45;;;;;;;;;;;16.10;97.80;;;;;;5071980;28;19915;-69
2021/09/25 06:19:12;;;;;;;;;;;15.90;98.10;;;;;;5078740;28;20248;-68
2021/09/25 06:21:39;;;;;;;;;;;15.80;98.30;;;;;;5092256;28;19973;-68
2021/09/25 06:24:07;;;;;;;;;;;15.80;98.00;;;;;;5092134;28;19995;-68
2021/09/25 06:26:34;;;;;;;;;;;15.80;98.00;;;;;;5091986;28;19909;-68
2021/09/25 06:29:00;;;;;;;;;;;15.90;97.80;;;;;;5092707;28;19917;-68
2021/09/25 06:31:27;;;;;;;;;;;15.90;97.80;;;;;;5095783;28;19916;-67
2021/09/25 06:33:56;;;;;;;;;;;15.90;97.90;;;;;;5091481;28;19980;-70
2021/09/25 06:36:23;;;;;;;;;;;16.00;97.60;;;;;;5092128;28;19943;-68
2021/09/25 06:38:50;;;;;;;;;;;16.00;97.80;;;;;;5091721;28;19915;-69
2021/09/25 06:41:17;;;;;;;;;;;16.10;97.80;;;;;;5091230;28;20623;-67
2021/09/25 06:43:44;;;;;;;;;;;16.10;97.20;;;;;;5091673;28;19915;-70
2021/09/25 06:46:11;;;;;;;;;;;16.10;97.60;;;;;;5091707;28;19915;-70
2021/09/25 06:48:38;;;;;;;;;;;16.00;98.40;;;;;;5091674;28;19920;-69
2021/09/25 06:51:05;;;;;;;;;;;15.90;99.30;;;;;;5091542;28;19920;-69
2021/09/25 06:53:31;;;;;;;;;;;15.80;99.60;;;;;;5091803;28;19908;-71
2021/09/25 06:55:58;;;;;;;;;;;15.70;99.70;;;;;;5091467;28;20355;-70
2021/09/25 06:58:24;;;;;;;;;;;15.70;99.50;;;;;;5091675;28;19968;-69
2021/09/25 07:00:51;;;;;;;;;;;15.80;99.30;;;;;;5091634;28;19916;-70
2021/09/25 07:03:18;;;;;;;;;;;15.90;99.10;;;;;;5091410;28;19958;-69
2021/09/25 07:05:44;;;;;;;;;;;15.80;99.00;;;;;;5090891;28;19954;-69
2021/09/25 07:08:12;;;;;;;;;;;15.60;99.30;;;;;;5091149;28;19966;-69
2021/09/25 07:10:38;;;;;;;;;;;15.60;99.70;;;;;;5090766;28;20338;-69
2021/09/25 07:13:05;;;;;;;;;;;15.60;99.70;;;;;;5091186;28;19947;-70
2021/09/25 07:15:32;;;;;;;;;;;15.70;99.30;;;;;;5090943;28;20409;-70
2021/09/25 07:17:59;;;;;;;;;;;15.70;98.70;;;;;;5090787;28;19912;-70
2021/09/25 07:20:26;;;;;;;;;;;15.60;98.70;;;;;;5091054;28;19908;-69
2021/09/25 07:22:52;;;;;;;;;;;15.60;99.00;;;;;;5091166;28;20266;-69
2021/09/25 07:25:20;;;;;;;;;;;15.60;98.90;;;;;;5091114;28;19916;-70
2021/09/25 07:27:46;;;;;;;;;;;15.60;98.90;;;;;;5090783;28;19949;-70
2021/09/25 07:30:13;;;;;;;;;;;15.70;99.10;;;;;;5090778;28;20373;-69
2021/09/25 07:32:40;;;;;;;;;;;15.70;99.30;;;;;;5091007;28;20468;-70
2021/09/25 07:35:07;;;;;;;;;;;15.60;99.70;;;;;;5090837;28;20390;-69
2021/09/25 07:37:34;;;;;;;;;;;15.50;99.90;;;;;;5090799;28;19916;-69
2021/09/25 07:40:02;;;;;;;;;;;15.30;99.90;;;;;;5090722;28;19912;-70
2021/09/25 07:42:29;;;;;;;;;;;15.20;99.90;;;;;;5090731;28;19908;-70
2021/09/25 07:44:56;;;;;;;;;;;15.20;99.90;;;;;;5090415;28;20279;-70
2021/09/25 07:47:22;;;;;;;;;;;15.30;99.90;;;;;;5090739;28;19908;-69
2021/09/25 07:49:49;;;;;;;;;;;15.30;99.40;;;;;;5090202;28;19923;-69
2021/09/25 07:52:16;;;;;;;;;;;15.40;99.10;;;;;;5090734;28;19919;-69
2021/09/25 07:54:49;;;;;;;;;;;15.30;99.20;;;;;;5089927;28;20221;-70
2021/09/25 07:57:16;;;;;;;;;;;15.40;99.20;;;;;;5089977;28;19920;-70
2021/09/25 07:59:43;;;;;;;;;;;15.50;99.80;;;;;;5086187;28;19918;-69
2021/09/25 08:02:09;;;;;;;;;;;15.30;99.90;;;;;;5070293;28;19913;-70
2021/09/25 08:04:36;;;;;;;;;;;15.30;99.90;;;;;;5079004;28;20006;-69
2021/09/25 08:07:03;;;;;;;;;;;15.20;99.90;;;;;;5075036;28;20290;-69
2021/09/25 08:09:30;;;;;;;;;;;15.10;99.90;;;;;;5069752;28;19970;-70
2021/09/25 08:11:56;;;;;;;;;;;15.00;99.90;;;;;;5070315;28;19909;-69
2021/09/25 08:14:24;;;;;;;;;;;15.00;99.90;;;;;;5070314;28;19908;-70
2021/09/25 08:16:51;;;;;;;;;;;15.00;99.90;;;;;;5069851;28;19909;-69
2021/09/25 08:19:18;;;;;;;;;;;15.00;99.90;;;;;;5070367;28;19931;-69
2021/09/25 08:21:45;;;;;;;;;;;15.20;99.90;;;;;;5071757;28;20328;-69
2021/09/25 08:24:11;;;;;;;;;;;15.10;99.90;;;;;;5074117;28;19908;-69
2021/09/25 08:26:38;;;;;;;;;;;15.20;99.90;;;;;;5074259;28;20011;-68
2021/09/25 08:29:05;;;;;;;;;;;15.10;99.90;;;;;;5074299;28;19920;-68
2021/09/25 08:31:31;;;;;;;;;;;15.10;99.90;;;;;;5073360;28;19975;-68
2021/09/25 08:33:58;;;;;;;;;;;15.10;99.90;;;;;;5074000;28;19912;-69
2021/09/25 08:36:25;;;;;;;;;;;15.10;99.90;;;;;;5073594;28;19908;-69
2021/09/25 08:38:51;;;;;;;;;;;15.10;99.90;;;;;;5074234;28;19955;-68
2021/09/25 08:41:18;;;;;;;;;;;15.10;99.90;;;;;;5073928;28;19934;-69
2021/09/25 08:43:45;;;;;;;;;;;15.10;99.90;;;;;;5073699;28;19912;-68
2021/09/25 08:46:14;;;;;;;;;;;15.00;99.90;;;;;;5073234;28;20320;-68
2021/09/25 08:48:40;;;;;;;;;;;14.90;99.90;;;;;;5073215;28;19919;-69
2021/09/25 08:51:09;;;;;;;;;;;14.80;99.90;;;;;;5073453;28;20020;-69
2021/09/25 08:53:36;;;;;;;;;;;14.80;99.90;;;;;;5073316;28;19916;-69
2021/09/25 08:56:03;;;;;;;;;;;14.80;99.90;;;;;;5073630;28;19912;-69
2021/09/25 08:58:29;;;;;;;;;;;14.80;99.90;;;;;;5073524;28;19923;-68
2021/09/25 09:00:59;;;;;;;;;;;14.80;99.90;;;;;;5072716;28;19917;-68
2021/09/25 09:03:27;;;;;;;;;;;14.70;99.90;;;;;;5073285;28;19931;-68
2021/09/25 09:05:56;;;;;;;;;;;14.70;99.90;;;;;;5073401;28;20337;-68
2021/09/25 09:08:23;;;;;;;;;;;14.70;99.90;;;;;;5073403;28;19917;-68
2021/09/25 09:10:50;;;;;;;;;;;14.70;99.90;;;;;;5073329;28;19912;-68
2021/09/25 09:13:17;;;;;;;;;;;14.70;99.90;;;;;;5073599;28;19995;-68
2021/09/25 09:15:48;;;;;;;;;;;14.70;99.90;;;;;;5072341;28;20310;-68
2021/09/25 09:18:16;;;;;;;;;;;14.50;99.90;;;;;;5105697;28;19916;-68
2021/09/25 09:21:01;;;;;;;;;;;14.50;99.90;;;;;;5073398;28;20015;-68
2021/09/25 09:23:27;;;;;;;;;;;14.50;99.90;;;;;;5073213;28;19993;-68
2021/09/25 09:25:54;;;;;;;;;;;14.50;99.90;;;;;;5072966;28;20399;-68
2021/09/25 09:28:27;;;;;;;;;;;14.40;99.90;;;;;;5072439;28;20000;-68
2021/09/25 09:30:54;;;;;;;;;;;14.50;99.90;;;;;;5072381;28;19912;-69
2021/09/25 09:33:31;;;;;;;;;;;14.40;99.90;;;;;;5071543;28;20382;-68
2021/09/25 09:36:30;;;;;;;;;;;14.40;99.90;;;;;;5073062;28;19912;-68
2021/09/25 09:39:19;;;;;;;;;;;14.40;99.90;;;;;;5057618;28;19915;-67
2021/09/25 09:41:47;;;;;;;;;;;14.30;99.90;;;;;;5049420;28;20344;-68
2021/09/25 09:44:16;;;;;;;;;;;14.30;99.90;;;;;;5072656;28;19912;-67
2021/09/25 09:46:44;;;;;;;;;;;14.30;99.90;;;;;;5072759;28;19999;-68
2021/09/25 09:49:13;;;;;;;;;;;14.40;99.90;;;;;;5072509;28;19916;-68
2021/09/25 09:51:48;;;;;;;;;;;14.40;99.90;;;;;;5072460;28;20401;-68
2021/09/25 09:54:17;;;;;;;;;;;14.50;99.90;;;;;;5072451;28;19920;-70
2021/09/25 09:56:44;;;;;;;;;;;14.50;99.90;;;;;;5072581;28;19909;-68
2021/09/25 09:59:11;;;;;;;;;;;14.50;99.90;;;;;;5071904;28;19915;-68
2021/09/25 10:01:39;;;;;;;;;;;14.50;99.90;;;;;;5072179;28;19963;-67
2021/09/25 10:04:06;;;;;;;;;;;14.50;99.90;;;;;;5072499;28;19909;-67
2021/09/25 10:06:36;;;;;;;;;;;14.60;99.70;;;;;;5072638;28;19954;-71
2021/09/25 10:09:06;;;;;;;;;;;14.60;99.30;;;;;;5072052;28;19972;-70
2021/09/25 10:11:33;;;;;;;;;;;14.70;99.10;;;;;;5072188;28;19934;-68
2021/09/25 10:14:00;;;;;;;;;;;14.70;99.10;;;;;;5071715;28;19909;-68
2021/09/25 10:16:29;;;;;;;;;;;14.70;99.20;;;;;;5072061;28;19909;-68
2021/09/25 10:18:55;;;;;;;;;;;14.70;99.30;;;;;;5072321;28;20367;-68
2021/09/25 10:21:23;;;;;;;;;;;14.70;99.10;;;;;;5071676;28;19913;-69
2021/09/25 10:23:56;;;;;;;;;;;14.70;99.00;;;;;;5071503;28;19959;-68
2021/09/25 10:26:23;;;;;;;;;;;14.70;98.90;;;;;;5072154;28;19934;-67
2021/09/25 10:28:54;;;;;;;;;;;14.70;99.00;;;;;;5071796;28;19916;-68
2021/09/25 10:31:20;;;;;;;;;;;14.70;98.80;;;;;;5071999;28;20271;-69
2021/09/25 10:34:05;;;;;;;;;;;14.70;98.70;;;;;;5071461;28;19909;-68
2021/09/25 10:36:36;;;;;;;;;;;14.70;98.70;;;;;;5071979;28;19908;-68
2021/09/25 10:39:16;;;;;;;;;;;14.60;98.70;;;;;;5071840;28;19908;-69
2021/09/25 10:41:45;;;;;;;;;;;14.60;98.90;;;;;;5071772;28;20386;-69
2021/09/25 10:44:28;;;;;;;;;;;14.70;99.10;;;;;;5071610;28;19909;-68
2021/09/25 10:47:09;;;;;;;;;;;14.70;99.30;;;;;;5071174;28;20364;-68
2021/09/25 10:49:44;;;;;;;;;;;14.60;99.70;;;;;;5071021;28;19923;-68
2021/09/25 10:52:11;;;;;;;;;;;14.50;99.90;;;;;;5071802;28;20492;-69
2021/09/25 10:54:38;;;;;;;;;;;14.40;99.90;;;;;;5071673;28;19923;-69
2021/09/25 10:57:18;;;;;;;;;;;14.40;99.90;;;;;;5071294;28;20379;-68
2021/09/25 11:00:02;;;;;;;;;;;14.40;99.90;;;;;;5070819;28;19954;-68
2021/09/25 11:02:42;;;;;;;;;;;14.30;99.90;;;;;;5071207;28;19912;-68
2021/09/25 11:05:08;;;;;;;;;;;14.20;99.90;;;;;;5071483;28;19995;-68
2021/09/25 11:07:37;;;;;;;;;;;14.10;99.90;;;;;;5071096;28;19956;-68
2021/09/25 11:10:03;;;;;;;;;;;14.10;99.90;;;;;;5071495;28;19916;-69
2021/09/25 11:12:42;;;;;;;;;;;14.20;99.90;;;;;;5070893;28;20017;-69
2021/09/25 11:15:28;;;;;;;;;;;14.10;99.90;;;;;;5076920;28;19916;-68
2021/09/25 11:18:15;;;;;;;;;;;14.10;99.90;;;;;;5074775;28;19991;-69
2021/09/25 11:20:41;;;;;;;;;;;14.10;99.90;;;;;;5066992;28;19984;-68
2021/09/25 11:23:08;;;;;;;;;;;14.10;99.90;;;;;;5070966;28;19972;-69
2021/09/25 11:25:35;;;;;;;;;;;14.00;99.90;;;;;;5070495;28;20450;-69
2021/09/25 11:28:04;;;;;;;;;;;14.00;99.90;;;;;;5070119;28;19909;-68
2021/09/25 11:30:31;;;;;;;;;;;13.90;99.90;;;;;;5103146;28;19951;-68
2021/09/25 11:33:00;;;;;;;;;;;14.00;99.90;;;;;;5070739;28;19912;-69
2021/09/25 11:35:28;;;;;;;;;;;13.90;99.90;;;;;;5070790;28;19920;-69
2021/09/25 11:37:56;;;;;;;;;;;13.90;99.90;;;;;;5070650;28;19908;-69
2021/09/25 11:40:25;;;;;;;;;;;13.90;99.90;;;;;;5070620;28;20464;-68
2021/09/25 11:42:52;;;;;;;;;;;13.90;99.90;;;;;;5070958;28;19909;-68
2021/09/25 11:45:19;;;;;;;;;;;13.90;99.90;;;;;;5070497;28;20033;-69
2021/09/25 11:47:47;;;;;;;;;;;13.90;99.90;;;;;;5070491;28;20356;-69
2021/09/25 11:50:24;;;;;;;;;;;13.90;99.90;;;;;;5070269;28;19924;-69
2021/09/25 11:52:52;;;;;;;;;;;14.00;99.90;;;;;;5070393;28;19912;-70
2021/09/25 11:55:20;;;;;;;;;;;13.90;99.90;;;;;;5070270;28;19909;-69
2021/09/25 11:57:49;;;;;;;;;;;13.80;99.90;;;;;;5070103;28;19943;-69
2021/09/25 12:00:20;;;;;;;;;;;13.70;99.90;;;;;;5070354;28;20367;-68
2021/09/25 12:02:48;;;;;;;;;;;13.80;99.90;;;;;;5070334;28;19912;-69
2021/09/25 12:05:26;;;;;;;;;;;13.70;99.90;;;;;;5070009;28;19955;-68
2021/09/25 12:07:53;;;;;;;;;;;13.70;99.90;;;;;;5070157;28;20279;-69
2021/09/25 12:10:21;;;;;;;;;;;13.60;99.90;;;;;;5070728;28;19979;-70
2021/09/25 12:12:55;;;;;;;;;;;13.60;99.90;;;;;;5070489;28;19917;-68
2021/09/25 12:15:27;;;;;;;;;;;13.60;99.90;;;;;;5070330;28;19951;-69
2021/09/25 12:18:12;;;;;;;;;;;13.80;99.90;;;;;;5069861;28;19908;-69
2021/09/25 12:20:41;;;;;;;;;;;13.80;99.90;;;;;;5070440;28;19955;-69
2021/09/25 12:23:08;;;;;;;;;;;13.70;99.90;;;;;;5070232;28;19962;-69
2021/09/25 12:25:38;;;;;;;;;;;13.60;99.90;;;;;;5069797;28;19962;-69
2021/09/25 12:28:22;;;;;;;;;;;13.60;99.90;;;;;;5070054;28;20268;-69
2021/09/25 12:30:49;;;;;;;;;;;13.60;99.90;;;;;;5069810;28;19919;-69
2021/09/25 12:33:19;;;;;;;;;;;13.60;99.90;;;;;;5070297;28;19936;-69
2021/09/25 12:36:01;;;;;;;;;;;13.70;99.90;;;;;;5069957;28;19916;-68
2021/09/25 12:38:29;;;;;;;;;;;13.70;99.90;;;;;;5070158;28;19917;-69
2021/09/25 12:40:59;;;;;;;;;;;13.60;99.90;;;;;;5070213;28;19954;-69
2021/09/25 12:43:26;;;;;;;;;;;13.70;99.90;;;;;;5070135;28;19974;-69
2021/09/25 12:46:10;;;;;;;;;;;13.80;99.90;;;;;;5069590;28;19931;-68
2021/09/25 12:48:55;;;;;;;;;;;13.70;99.90;;;;;;5070058;28;19925;-69
2021/09/25 12:51:29;;;;;;;;;;;13.70;99.90;;;;;;5073588;28;20034;-68
2021/09/25 12:53:57;;;;;;;;;;;13.70;99.90;;;;;;5072653;28;19909;-68
2021/09/25 12:56:29;;;;;;;;;;;13.70;99.90;;;;;;5069958;28;19999;-68
2021/09/25 12:58:58;;;;;;;;;;;13.70;99.90;;;;;;5070226;28;20017;-68
2021/09/25 13:01:31;;;;;;;;;;;13.70;99.90;;;;;;5072162;28;19909;-67
2021/09/25 13:04:12;;;;;;;;;;;13.70;99.90;;;;;;5071858;28;20114;-69
2021/09/25 13:06:44;;;;;;;;;;;13.60;99.90;;;;;;5071759;28;19908;-68
2021/09/25 13:09:11;;;;;;;;;;;13.50;99.90;;;;;;5075428;28;19916;-68
2021/09/25 13:11:38;;;;;;;;;;;13.40;99.90;;;;;;5075404;28;19954;-68
2021/09/25 13:14:11;;;;;;;;;;;13.30;99.90;;;;;;5075355;28;20390;-68
2021/09/25 13:16:39;;;;;;;;;;;13.30;99.90;;;;;;5075495;28;19965;-69
2021/09/25 13:19:06;;;;;;;;;;;13.20;99.90;;;;;;5075484;28;19916;-69
2021/09/25 13:21:33;;;;;;;;;;;13.30;99.90;;;;;;5075143;28;19908;-69
2021/09/25 13:24:07;;;;;;;;;;;13.30;99.90;;;;;;5075161;28;19954;-69
2021/09/25 13:26:34;;;;;;;;;;;13.30;99.90;;;;;;5075198;28;19908;-68
2021/09/25 13:29:01;;;;;;;;;;;13.50;99.90;;;;;;5074978;28;19916;-69
2021/09/25 13:31:28;;;;;;;;;;;13.50;99.90;;;;;;5075283;28;19953;-68
2021/09/25 13:33:54;;;;;;;;;;;13.50;99.90;;;;;;5074934;28;19961;-69
2021/09/25 13:36:22;;;;;;;;;;;13.50;99.90;;;;;;5075040;28;19916;-68
2021/09/25 13:38:49;;;;;;;;;;;13.50;99.90;;;;;;5075177;28;19909;-69
2021/09/25 13:41:16;;;;;;;;;;;13.50;99.90;;;;;;5074993;28;19961;-68
2021/09/25 13:43:43;;;;;;;;;;;13.50;99.90;;;;;;5074797;28;19909;-68
2021/09/25 13:46:09;;;;;;;;;;;13.50;99.90;;;;;;5074824;28;19909;-68
2021/09/25 13:48:36;;;;;;;;;;;13.50;99.90;;;;;;5074830;28;20140;-67
2021/09/25 13:51:03;;;;;;;;;;;13.50;99.90;;;;;;5106980;28;19924;-68
2021/09/25 13:53:30;;;;;;;;;;;13.60;99.90;;;;;;5074616;28;20003;-67
2021/09/25 13:55:59;;;;;;;;;;;13.60;99.90;;;;;;5074657;28;19951;-68
2021/09/25 13:58:27;;;;;;;;;;;13.60;99.90;;;;;;5074734;28;20025;-67
2021/09/25 14:00:58;;;;;;;;;;;13.60;99.90;;;;;;5074396;28;19915;-68
2021/09/25 14:03:25;;;;;;;;;;;13.70;99.90;;;;;;5074413;28;19909;-68
2021/09/25 14:05:53;;;;;;;;;;;13.50;99.90;;;;;;5074364;28;19955;-67
2021/09/25 14:08:20;;;;;;;;;;;13.40;99.90;;;;;;5074550;28;20000;-68
2021/09/25 14:10:47;;;;;;;;;;;13.30;99.90;;;;;;5074311;28;19996;-67
2021/09/25 14:13:14;;;;;;;;;;;13.20;99.90;;;;;;5074345;28;19909;-67
2021/09/25 14:15:40;;;;;;;;;;;13.10;99.90;;;;;;5073883;28;19951;-68
2021/09/25 14:18:09;;;;;;;;;;;13.10;99.90;;;;;;5074150;28;19912;-67
2021/09/25 14:20:41;;;;;;;;;;;13.00;99.90;;;;;;5073628;28;19908;-69
2021/09/25 14:23:10;;;;;;;;;;;13.00;99.90;;;;;;5074511;28;19912;-69